sensor_id;sensor_type;location;lat;lon;timestamp;P1;durP1;ratioP1;P2;durP2;ratioP2
45296;SDS011;31040;51.622;10.420;2022-12-07T00:01:22;20.45;;;12.23;;
45296;SDS011;31040;51.622;10.420;2022-12-07T00:03:51;20.02;;;11.27;;
45296;SDS011;31040;51.622;10.420;2022-12-07T00:06:19;18.35;;;10.50;;
45296;SDS011;31040;51.622;10.420;2022-12-07T00:08:47;17.50;;;10.77;;
45296;SDS011;31040;51.622;10.420;2022-12-07T00:11:15;20.48;;;12.93;;
45296;SDS011;31040;51.622;10.420;2022-12-07T00:13:43;18.73;;;12.38;;
45296;SDS011;31040;51.622;10.420;2022-12-07T00:16:12;17.80;;;11.55;;
45296;SDS011;31040;51.622;10.420;2022-12-07T00:18:39;17.85;;;11.68;;
45296;SDS011;31040;51.622;10.420;2022-12-07T00:21:17;19.50;;;11.85;;
45296;SDS011;31040;51.622;10.420;2022-12-07T00:23:45;20.83;;;12.57;;
45296;SDS011;31040;51.622;10.420;2022-12-07T00:26:14;20.80;;;12.10;;
45296;SDS011;31040;51.622;10.420;2022-12-07T00:28:49;19.08;;;11.30;;
45296;SDS011;31040;51.622;10.420;2022-12-07T00:31:17;22.57;;;12.83;;
45296;SDS011;31040;51.622;10.420;2022-12-07T00:33:45;20.20;;;12.10;;
45296;SDS011;31040;51.622;10.420;2022-12-07T00:36:14;18.70;;;11.70;;
45296;SDS011;31040;51.622;10.420;2022-12-07T00:38:42;20.60;;;11.25;;
45296;SDS011;31040;51.622;10.420;2022-12-07T00:41:13;20.83;;;11.73;;
45296;SDS011;31040;51.622;10.420;2022-12-07T00:43:42;18.92;;;10.60;;
45296;SDS011;31040;51.622;10.420;2022-12-07T00:46:10;20.08;;;12.05;;
45296;SDS011;31040;51.622;10.420;2022-12-07T00:48:37;20.10;;;10.18;;
45296;SDS011;31040;51.622;10.420;2022-12-07T00:51:05;22.88;;;13.13;;
45296;SDS011;31040;51.622;10.420;2022-12-07T00:53:36;21.80;;;12.57;;
45296;SDS011;31040;51.622;10.420;2022-12-07T00:56:07;20.97;;;12.17;;
45296;SDS011;31040;51.622;10.420;2022-12-07T00:58:34;20.73;;;11.07;;
45296;SDS011;31040;51.622;10.420;2022-12-07T01:01:03;23.08;;;12.07;;
45296;SDS011;31040;51.622;10.420;2022-12-07T01:03:30;19.83;;;12.02;;
45296;SDS011;31040;51.622;10.420;2022-12-07T01:05:58;20.75;;;12.52;;
45296;SDS011;31040;51.622;10.420;2022-12-07T01:08:26;18.42;;;11.77;;
45296;SDS011;31040;51.622;10.420;2022-12-07T01:11:06;22.17;;;12.65;;
45296;SDS011;31040;51.622;10.420;2022-12-07T01:13:34;21.88;;;13.20;;
45296;SDS011;31040;51.622;10.420;2022-12-07T01:16:03;19.83;;;11.55;;
45296;SDS011;31040;51.622;10.420;2022-12-07T01:18:32;17.45;;;11.82;;
45296;SDS011;31040;51.622;10.420;2022-12-07T01:21:04;19.20;;;11.90;;
45296;SDS011;31040;51.622;10.420;2022-12-07T01:23:31;19.73;;;11.63;;
45296;SDS011;31040;51.622;10.420;2022-12-07T01:26:00;20.30;;;10.80;;
45296;SDS011;31040;51.622;10.420;2022-12-07T01:28:28;20.17;;;11.70;;
45296;SDS011;31040;51.622;10.420;2022-12-07T01:31:03;18.80;;;10.65;;
45296;SDS011;31040;51.622;10.420;2022-12-07T01:33:34;17.38;;;10.50;;
45296;SDS011;31040;51.622;10.420;2022-12-07T01:36:12;16.42;;;10.82;;
45296;SDS011;31040;51.622;10.420;2022-12-07T01:38:40;22.73;;;11.93;;
45296;SDS011;31040;51.622;10.420;2022-12-07T01:41:08;19.00;;;11.07;;
45296;SDS011;31040;51.622;10.420;2022-12-07T01:43:35;23.80;;;12.32;;
45296;SDS011;31040;51.622;10.420;2022-12-07T01:46:03;16.58;;;10.35;;
45296;SDS011;31040;51.622;10.420;2022-12-07T01:48:39;22.27;;;12.27;;
45296;SDS011;31040;51.622;10.420;2022-12-07T01:51:08;19.63;;;11.38;;
45296;SDS011;31040;51.622;10.420;2022-12-07T01:53:38;20.70;;;10.90;;
45296;SDS011;31040;51.622;10.420;2022-12-07T01:56:07;17.08;;;10.63;;
45296;SDS011;31040;51.622;10.420;2022-12-07T01:58:35;17.67;;;10.18;;
45296;SDS011;31040;51.622;10.420;2022-12-07T02:01:03;17.60;;;10.05;;
45296;SDS011;31040;51.622;10.420;2022-12-07T02:03:32;18.50;;;10.98;;
45296;SDS011;31040;51.622;10.420;2022-12-07T02:06:01;19.58;;;12.38;;
45296;SDS011;31040;51.622;10.420;2022-12-07T02:08:29;20.13;;;11.80;;
45296;SDS011;31040;51.622;10.420;2022-12-07T02:10:56;18.75;;;10.25;;
45296;SDS011;31040;51.622;10.420;2022-12-07T02:13:24;21.25;;;10.93;;
45296;SDS011;31040;51.622;10.420;2022-12-07T02:24:08;23.13;;;12.00;;
45296;SDS011;31040;51.622;10.420;2022-12-07T02:30:09;20.25;;;10.68;;
45296;SDS011;31040;51.622;10.420;2022-12-07T02:43:10;20.92;;;11.43;;
45296;SDS011;31040;51.622;10.420;2022-12-07T02:45:39;20.13;;;12.05;;
45296;SDS011;31040;51.622;10.420;2022-12-07T02:48:08;19.48;;;12.23;;
45296;SDS011;31040;51.622;10.420;2022-12-07T02:50:37;20.05;;;11.88;;
45296;SDS011;31040;51.622;10.420;2022-12-07T02:53:04;19.10;;;11.02;;
45296;SDS011;31040;51.622;10.420;2022-12-07T02:55:34;19.67;;;11.73;;
45296;SDS011;31040;51.622;10.420;2022-12-07T03:00:41;21.65;;;11.68;;
45296;SDS011;31040;51.622;10.420;2022-12-07T03:03:10;21.13;;;11.88;;
45296;SDS011;31040;51.622;10.420;2022-12-07T03:08:28;18.85;;;11.60;;
45296;SDS011;31040;51.622;10.420;2022-12-07T03:10:59;20.33;;;12.23;;
45296;SDS011;31040;51.622;10.420;2022-12-07T03:21:15;17.05;;;10.98;;
45296;SDS011;31040;51.622;10.420;2022-12-07T03:23:45;17.77;;;11.05;;
45296;SDS011;31040;51.622;10.420;2022-12-07T03:26:14;20.30;;;11.23;;
45296;SDS011;31040;51.622;10.420;2022-12-07T03:28:44;22.00;;;11.43;;
45296;SDS011;31040;51.622;10.420;2022-12-07T03:33:51;21.17;;;11.73;;
45296;SDS011;31040;51.622;10.420;2022-12-07T03:36:21;19.77;;;12.27;;
45296;SDS011;31040;51.622;10.420;2022-12-07T03:38:52;21.83;;;12.85;;
45296;SDS011;31040;51.622;10.420;2022-12-07T03:41:28;22.25;;;11.98;;
45296;SDS011;31040;51.622;10.420;2022-12-07T03:43:56;24.00;;;12.68;;
45296;SDS011;31040;51.622;10.420;2022-12-07T03:46:44;24.63;;;12.60;;
45296;SDS011;31040;51.622;10.420;2022-12-07T03:51:53;21.98;;;12.27;;
45296;SDS011;31040;51.622;10.420;2022-12-07T03:54:23;23.45;;;12.10;;
45296;SDS011;31040;51.622;10.420;2022-12-07T03:56:51;20.30;;;12.57;;
45296;SDS011;31040;51.622;10.420;2022-12-07T03:59:19;22.15;;;14.35;;
45296;SDS011;31040;51.622;10.420;2022-12-07T04:01:51;25.08;;;13.10;;
45296;SDS011;31040;51.622;10.420;2022-12-07T04:04:19;22.52;;;12.20;;
45296;SDS011;31040;51.622;10.420;2022-12-07T04:06:46;19.48;;;12.98;;
45296;SDS011;31040;51.622;10.420;2022-12-07T04:09:14;23.27;;;13.10;;
45296;SDS011;31040;51.622;10.420;2022-12-07T04:11:41;20.95;;;11.98;;
45296;SDS011;31040;51.622;10.420;2022-12-07T04:14:09;23.40;;;12.32;;
45296;SDS011;31040;51.622;10.420;2022-12-07T04:16:50;21.23;;;11.63;;
45296;SDS011;31040;51.622;10.420;2022-12-07T04:19:18;23.30;;;12.52;;
45296;SDS011;31040;51.622;10.420;2022-12-07T04:21:46;22.73;;;11.52;;
45296;SDS011;31040;51.622;10.420;2022-12-07T04:24:14;27.17;;;12.85;;
45296;SDS011;31040;51.622;10.420;2022-12-07T04:26:42;24.13;;;12.93;;
45296;SDS011;31040;51.622;10.420;2022-12-07T04:29:10;21.27;;;11.63;;
45296;SDS011;31040;51.622;10.420;2022-12-07T04:31:38;20.90;;;11.68;;
45296;SDS011;31040;51.622;10.420;2022-12-07T04:34:05;27.95;;;13.32;;
45296;SDS011;31040;51.622;10.420;2022-12-07T04:36:33;23.67;;;11.90;;
45296;SDS011;31040;51.622;10.420;2022-12-07T04:39:00;27.65;;;12.25;;
45296;SDS011;31040;51.622;10.420;2022-12-07T04:41:27;24.35;;;11.93;;
45296;SDS011;31040;51.622;10.420;2022-12-07T04:43:59;24.63;;;12.45;;
45296;SDS011;31040;51.622;10.420;2022-12-07T04:46:27;22.92;;;11.80;;
45296;SDS011;31040;51.622;10.420;2022-12-07T04:48:55;21.10;;;12.18;;
45296;SDS011;31040;51.622;10.420;2022-12-07T04:51:24;26.95;;;13.98;;
45296;SDS011;31040;51.622;10.420;2022-12-07T04:53:51;23.85;;;13.18;;
45296;SDS011;31040;51.622;10.420;2022-12-07T04:56:19;22.35;;;13.57;;
45296;SDS011;31040;51.622;10.420;2022-12-07T04:58:46;25.83;;;13.70;;
45296;SDS011;31040;51.622;10.420;2022-12-07T05:01:15;27.23;;;14.45;;
45296;SDS011;31040;51.622;10.420;2022-12-07T05:03:42;29.52;;;15.23;;
45296;SDS011;31040;51.622;10.420;2022-12-07T05:06:10;28.73;;;17.40;;
45296;SDS011;31040;51.622;10.420;2022-12-07T05:08:39;26.65;;;14.38;;
45296;SDS011;31040;51.622;10.420;2022-12-07T05:11:07;26.10;;;15.45;;
45296;SDS011;31040;51.622;10.420;2022-12-07T05:13:35;27.08;;;14.80;;
45296;SDS011;31040;51.622;10.420;2022-12-07T05:16:02;29.67;;;17.35;;
45296;SDS011;31040;51.622;10.420;2022-12-07T05:18:30;30.85;;;17.80;;
45296;SDS011;31040;51.622;10.420;2022-12-07T05:20:57;27.65;;;16.50;;
45296;SDS011;31040;51.622;10.420;2022-12-07T05:23:24;27.70;;;15.88;;
45296;SDS011;31040;51.622;10.420;2022-12-07T05:25:52;29.98;;;16.85;;
45296;SDS011;31040;51.622;10.420;2022-12-07T05:28:19;27.45;;;15.38;;
45296;SDS011;31040;51.622;10.420;2022-12-07T05:30:46;23.85;;;13.27;;
45296;SDS011;31040;51.622;10.420;2022-12-07T05:33:13;27.35;;;13.90;;
45296;SDS011;31040;51.622;10.420;2022-12-07T05:35:41;25.13;;;13.60;;
45296;SDS011;31040;51.622;10.420;2022-12-07T05:38:08;23.17;;;13.43;;
45296;SDS011;31040;51.622;10.420;2022-12-07T05:40:36;23.95;;;13.07;;
45296;SDS011;31040;51.622;10.420;2022-12-07T05:43:03;22.75;;;13.52;;
45296;SDS011;31040;51.622;10.420;2022-12-07T05:45:30;23.98;;;13.65;;
45296;SDS011;31040;51.622;10.420;2022-12-07T05:47:58;28.05;;;14.15;;
45296;SDS011;31040;51.622;10.420;2022-12-07T05:50:25;21.20;;;12.40;;
45296;SDS011;31040;51.622;10.420;2022-12-07T05:52:54;26.88;;;13.27;;
45296;SDS011;31040;51.622;10.420;2022-12-07T05:55:21;21.92;;;13.55;;
45296;SDS011;31040;51.622;10.420;2022-12-07T05:57:48;26.48;;;13.27;;
45296;SDS011;31040;51.622;10.420;2022-12-07T06:00:34;23.60;;;12.93;;
45296;SDS011;31040;51.622;10.420;2022-12-07T06:03:02;26.67;;;11.98;;
45296;SDS011;31040;51.622;10.420;2022-12-07T06:05:29;23.55;;;13.18;;
45296;SDS011;31040;51.622;10.420;2022-12-07T06:07:56;23.35;;;12.45;;
45296;SDS011;31040;51.622;10.420;2022-12-07T06:10:30;25.05;;;11.82;;
45296;SDS011;31040;51.622;10.420;2022-12-07T06:12:58;22.38;;;11.32;;
45296;SDS011;31040;51.622;10.420;2022-12-07T06:15:25;23.65;;;12.75;;
45296;SDS011;31040;51.622;10.420;2022-12-07T06:17:52;24.27;;;12.48;;
45296;SDS011;31040;51.622;10.420;2022-12-07T06:20:20;21.58;;;12.82;;
45296;SDS011;31040;51.622;10.420;2022-12-07T06:22:47;24.20;;;12.35;;
45296;SDS011;31040;51.622;10.420;2022-12-07T06:25:14;23.85;;;11.88;;
45296;SDS011;31040;51.622;10.420;2022-12-07T06:27:41;22.08;;;11.32;;
45296;SDS011;31040;51.622;10.420;2022-12-07T06:30:09;22.63;;;12.18;;
45296;SDS011;31040;51.622;10.420;2022-12-07T06:32:36;22.10;;;12.10;;
45296;SDS011;31040;51.622;10.420;2022-12-07T06:35:04;25.20;;;13.43;;
45296;SDS011;31040;51.622;10.420;2022-12-07T06:37:31;22.63;;;11.52;;
45296;SDS011;31040;51.622;10.420;2022-12-07T06:39:59;24.67;;;12.13;;
45296;SDS011;31040;51.622;10.420;2022-12-07T06:42:26;24.58;;;12.02;;
45296;SDS011;31040;51.622;10.420;2022-12-07T06:44:53;25.40;;;14.10;;
45296;SDS011;31040;51.622;10.420;2022-12-07T06:47:21;22.23;;;12.40;;
45296;SDS011;31040;51.622;10.420;2022-12-07T06:50:08;20.38;;;12.18;;
45296;SDS011;31040;51.622;10.420;2022-12-07T06:52:36;22.83;;;12.65;;
45296;SDS011;31040;51.622;10.420;2022-12-07T06:55:03;25.83;;;13.50;;
45296;SDS011;31040;51.622;10.420;2022-12-07T06:57:30;25.73;;;12.63;;
45296;SDS011;31040;51.622;10.420;2022-12-07T06:59:57;21.80;;;12.23;;
45296;SDS011;31040;51.622;10.420;2022-12-07T07:02:26;25.77;;;11.88;;
45296;SDS011;31040;51.622;10.420;2022-12-07T07:04:53;27.17;;;12.63;;
45296;SDS011;31040;51.622;10.420;2022-12-07T07:07:21;25.40;;;13.48;;
45296;SDS011;31040;51.622;10.420;2022-12-07T07:09:48;24.10;;;12.60;;
45296;SDS011;31040;51.622;10.420;2022-12-07T07:12:15;24.90;;;13.65;;
45296;SDS011;31040;51.622;10.420;2022-12-07T07:14:42;26.88;;;14.45;;
45296;SDS011;31040;51.622;10.420;2022-12-07T07:17:10;23.35;;;13.55;;
45296;SDS011;31040;51.622;10.420;2022-12-07T07:19:37;27.30;;;14.07;;
45296;SDS011;31040;51.622;10.420;2022-12-07T07:22:04;24.90;;;12.88;;
45296;SDS011;31040;51.622;10.420;2022-12-07T07:24:32;23.05;;;13.07;;
45296;SDS011;31040;51.622;10.420;2022-12-07T07:26:59;24.35;;;13.10;;
45296;SDS011;31040;51.622;10.420;2022-12-07T07:29:26;22.75;;;12.68;;
45296;SDS011;31040;51.622;10.420;2022-12-07T07:31:53;20.23;;;11.35;;
45296;SDS011;31040;51.622;10.420;2022-12-07T07:34:21;22.17;;;11.65;;
45296;SDS011;31040;51.622;10.420;2022-12-07T07:36:48;20.52;;;12.15;;
45296;SDS011;31040;51.622;10.420;2022-12-07T07:39:15;24.02;;;14.43;;
45296;SDS011;31040;51.622;10.420;2022-12-07T07:41:43;24.95;;;13.05;;
45296;SDS011;31040;51.622;10.420;2022-12-07T07:44:10;32.97;;;15.20;;
45296;SDS011;31040;51.622;10.420;2022-12-07T07:46:37;20.38;;;10.88;;
45296;SDS011;31040;51.622;10.420;2022-12-07T07:49:05;19.33;;;9.77;;
45296;SDS011;31040;51.622;10.420;2022-12-07T07:51:32;17.67;;;10.05;;
45296;SDS011;31040;51.622;10.420;2022-12-07T07:53:59;20.48;;;10.18;;
45296;SDS011;31040;51.622;10.420;2022-12-07T07:56:27;19.65;;;10.82;;
45296;SDS011;31040;51.622;10.420;2022-12-07T07:58:54;17.35;;;10.18;;
45296;SDS011;31040;51.622;10.420;2022-12-07T08:01:21;20.13;;;10.93;;
45296;SDS011;31040;51.622;10.420;2022-12-07T08:03:49;18.83;;;9.55;;
45296;SDS011;31040;51.622;10.420;2022-12-07T08:06:17;20.10;;;10.38;;
45296;SDS011;31040;51.622;10.420;2022-12-07T08:08:44;20.17;;;10.05;;
45296;SDS011;31040;51.622;10.420;2022-12-07T08:11:11;20.92;;;9.07;;
45296;SDS011;31040;51.622;10.420;2022-12-07T08:13:39;14.27;;;8.55;;
45296;SDS011;31040;51.622;10.420;2022-12-07T08:16:08;18.42;;;8.57;;
45296;SDS011;31040;51.622;10.420;2022-12-07T08:18:36;19.33;;;8.88;;
45296;SDS011;31040;51.622;10.420;2022-12-07T08:21:04;16.63;;;8.40;;
45296;SDS011;31040;51.622;10.420;2022-12-07T08:23:31;14.98;;;8.48;;
45296;SDS011;31040;51.622;10.420;2022-12-07T08:26:06;15.63;;;8.10;;
45296;SDS011;31040;51.622;10.420;2022-12-07T08:28:33;13.85;;;7.57;;
45296;SDS011;31040;51.622;10.420;2022-12-07T08:31:08;14.10;;;7.90;;
45296;SDS011;31040;51.622;10.420;2022-12-07T08:33:37;16.42;;;7.10;;
45296;SDS011;31040;51.622;10.420;2022-12-07T08:36:05;18.88;;;8.65;;
45296;SDS011;31040;51.622;10.420;2022-12-07T08:38:34;16.00;;;8.35;;
45296;SDS011;31040;51.622;10.420;2022-12-07T08:41:01;11.90;;;7.68;;
45296;SDS011;31040;51.622;10.420;2022-12-07T08:43:29;13.32;;;7.45;;
45296;SDS011;31040;51.622;10.420;2022-12-07T08:46:06;16.08;;;9.13;;
45296;SDS011;31040;51.622;10.420;2022-12-07T08:48:34;15.40;;;8.95;;
45296;SDS011;31040;51.622;10.420;2022-12-07T08:51:02;16.65;;;7.18;;
45296;SDS011;31040;51.622;10.420;2022-12-07T08:53:30;14.10;;;7.28;;
45296;SDS011;31040;51.622;10.420;2022-12-07T08:55:57;17.63;;;8.95;;
45296;SDS011;31040;51.622;10.420;2022-12-07T08:58:25;14.20;;;8.23;;
45296;SDS011;31040;51.622;10.420;2022-12-07T09:00:52;11.98;;;6.80;;
45296;SDS011;31040;51.622;10.420;2022-12-07T09:03:19;14.07;;;7.15;;
45296;SDS011;31040;51.622;10.420;2022-12-07T09:05:47;11.93;;;7.03;;
45296;SDS011;31040;51.622;10.420;2022-12-07T09:08:14;13.93;;;6.55;;
45296;SDS011;31040;51.622;10.420;2022-12-07T09:10:42;9.82;;;5.68;;
45296;SDS011;31040;51.622;10.420;2022-12-07T09:13:09;10.00;;;6.72;;
45296;SDS011;31040;51.622;10.420;2022-12-07T09:15:36;8.82;;;5.35;;
45296;SDS011;31040;51.622;10.420;2022-12-07T09:18:03;11.25;;;6.07;;
45296;SDS011;31040;51.622;10.420;2022-12-07T09:20:31;13.98;;;6.65;;
45296;SDS011;31040;51.622;10.420;2022-12-07T09:22:58;9.80;;;4.82;;
45296;SDS011;31040;51.622;10.420;2022-12-07T09:25:25;12.85;;;5.72;;
45296;SDS011;31040;51.622;10.420;2022-12-07T09:27:56;12.43;;;6.25;;
45296;SDS011;31040;51.622;10.420;2022-12-07T09:30:24;9.23;;;5.68;;
45296;SDS011;31040;51.622;10.420;2022-12-07T09:32:52;10.98;;;6.15;;
45296;SDS011;31040;51.622;10.420;2022-12-07T09:35:20;9.23;;;5.20;;
45296;SDS011;31040;51.622;10.420;2022-12-07T09:37:47;10.60;;;6.03;;
45296;SDS011;31040;51.622;10.420;2022-12-07T09:40:15;11.60;;;6.10;;
45296;SDS011;31040;51.622;10.420;2022-12-07T09:42:44;14.07;;;6.32;;
45296;SDS011;31040;51.622;10.420;2022-12-07T09:45:13;12.55;;;6.35;;
45296;SDS011;31040;51.622;10.420;2022-12-07T09:47:41;16.05;;;6.90;;
45296;SDS011;31040;51.622;10.420;2022-12-07T09:50:15;11.55;;;5.82;;
45296;SDS011;31040;51.622;10.420;2022-12-07T09:52:44;10.57;;;6.03;;
45296;SDS011;31040;51.622;10.420;2022-12-07T09:55:12;7.95;;;5.45;;
45296;SDS011;31040;51.622;10.420;2022-12-07T09:57:40;11.73;;;5.10;;
45296;SDS011;31040;51.622;10.420;2022-12-07T10:00:13;11.20;;;5.38;;
45296;SDS011;31040;51.622;10.420;2022-12-07T10:02:42;9.30;;;5.85;;
45296;SDS011;31040;51.622;10.420;2022-12-07T10:05:12;11.07;;;5.60;;
45296;SDS011;31040;51.622;10.420;2022-12-07T10:07:48;9.93;;;5.25;;
45296;SDS011;31040;51.622;10.420;2022-12-07T10:10:37;7.70;;;4.65;;
45296;SDS011;31040;51.622;10.420;2022-12-07T10:13:08;7.53;;;4.93;;
45296;SDS011;31040;51.622;10.420;2022-12-07T10:20:49;8.80;;;4.30;;
45296;SDS011;31040;51.622;10.420;2022-12-07T10:23:17;8.40;;;4.90;;
45296;SDS011;31040;51.622;10.420;2022-12-07T10:25:45;8.23;;;5.07;;
45296;SDS011;31040;51.622;10.420;2022-12-07T10:28:15;7.72;;;4.70;;
45296;SDS011;31040;51.622;10.420;2022-12-07T10:30:47;8.80;;;4.88;;
45296;SDS011;31040;51.622;10.420;2022-12-07T10:38:28;12.77;;;7.43;;
45296;SDS011;31040;51.622;10.420;2022-12-07T10:41:07;11.52;;;6.97;;
45296;SDS011;31040;51.622;10.420;2022-12-07T10:43:35;15.20;;;6.72;;
45296;SDS011;31040;51.622;10.420;2022-12-07T10:46:09;10.32;;;5.72;;
45296;SDS011;31040;51.622;10.420;2022-12-07T10:54:24;12.38;;;6.35;;
45296;SDS011;31040;51.622;10.420;2022-12-07T11:04:35;11.25;;;7.30;;
45296;SDS011;31040;51.622;10.420;2022-12-07T11:07:18;12.90;;;7.65;;
45296;SDS011;31040;51.622;10.420;2022-12-07T11:15:24;6.35;;;4.63;;
45296;SDS011;31040;51.622;10.420;2022-12-07T11:18:11;9.40;;;5.40;;
45296;SDS011;31040;51.622;10.420;2022-12-07T11:28:30;15.52;;;6.15;;
45296;SDS011;31040;51.622;10.420;2022-12-07T11:31:05;10.23;;;6.53;;
45296;SDS011;31040;51.622;10.420;2022-12-07T11:33:40;9.75;;;6.60;;
45296;SDS011;31040;51.622;10.420;2022-12-07T11:38:56;11.48;;;6.63;;
45296;SDS011;31040;51.622;10.420;2022-12-07T11:41:27;12.18;;;6.90;;
45296;SDS011;31040;51.622;10.420;2022-12-07T11:43:59;13.38;;;8.55;;
45296;SDS011;31040;51.622;10.420;2022-12-07T11:49:36;13.02;;;8.60;;
45296;SDS011;31040;51.622;10.420;2022-12-07T11:52:05;15.50;;;8.10;;
45296;SDS011;31040;51.622;10.420;2022-12-07T11:54:35;12.48;;;7.85;;
45296;SDS011;31040;51.622;10.420;2022-12-07T11:57:04;10.70;;;6.65;;
45296;SDS011;31040;51.622;10.420;2022-12-07T11:59:36;8.60;;;5.05;;
45296;SDS011;31040;51.622;10.420;2022-12-07T12:02:16;8.07;;;4.38;;
45296;SDS011;31040;51.622;10.420;2022-12-07T12:07:15;8.75;;;4.70;;
45296;SDS011;31040;51.622;10.420;2022-12-07T12:10:15;7.30;;;4.40;;
45296;SDS011;31040;51.622;10.420;2022-12-07T12:16:02;6.63;;;4.07;;
45296;SDS011;31040;51.622;10.420;2022-12-07T12:21:01;9.55;;;4.55;;
45296;SDS011;31040;51.622;10.420;2022-12-07T12:23:49;10.52;;;4.90;;
45296;SDS011;31040;51.622;10.420;2022-12-07T12:26:21;6.35;;;3.85;;
45296;SDS011;31040;51.622;10.420;2022-12-07T12:28:50;7.88;;;4.05;;
45296;SDS011;31040;51.622;10.420;2022-12-07T12:51:44;7.65;;;3.45;;
45296;SDS011;31040;51.622;10.420;2022-12-07T12:54:20;6.90;;;3.33;;
45296;SDS011;31040;51.622;10.420;2022-12-07T12:59:34;5.32;;;3.28;;
45296;SDS011;31040;51.622;10.420;2022-12-07T13:05:18;12.05;;;4.93;;
45296;SDS011;31040;51.622;10.420;2022-12-07T13:12:55;4.97;;;3.83;;
45296;SDS011;31040;51.622;10.420;2022-12-07T13:18:52;5.88;;;3.75;;
45296;SDS011;31040;51.622;10.420;2022-12-07T13:28:58;9.45;;;3.72;;
45296;SDS011;31040;51.622;10.420;2022-12-07T13:31:38;6.18;;;3.05;;
45296;SDS011;31040;51.622;10.420;2022-12-07T13:36:52;5.30;;;2.85;;
45296;SDS011;31040;51.622;10.420;2022-12-07T13:39:20;5.97;;;3.38;;
45296;SDS011;31040;51.622;10.420;2022-12-07T13:41:50;6.40;;;3.38;;
45296;SDS011;31040;51.622;10.420;2022-12-07T13:44:18;5.20;;;3.78;;
45296;SDS011;31040;51.622;10.420;2022-12-07T13:49:18;7.30;;;3.42;;
45296;SDS011;31040;51.622;10.420;2022-12-07T13:51:45;14.57;;;4.80;;
45296;SDS011;31040;51.622;10.420;2022-12-07T13:54:13;6.03;;;3.90;;
45296;SDS011;31040;51.622;10.420;2022-12-07T13:56:40;15.27;;;4.22;;
45296;SDS011;31040;51.622;10.420;2022-12-07T13:59:16;8.52;;;3.35;;
45296;SDS011;31040;51.622;10.420;2022-12-07T14:01:44;7.93;;;3.90;;
45296;SDS011;31040;51.622;10.420;2022-12-07T14:04:16;5.10;;;3.83;;
45296;SDS011;31040;51.622;10.420;2022-12-07T14:06:50;10.63;;;4.70;;
45296;SDS011;31040;51.622;10.420;2022-12-07T14:09:21;9.32;;;4.63;;
45296;SDS011;31040;51.622;10.420;2022-12-07T14:11:50;7.32;;;3.75;;
45296;SDS011;31040;51.622;10.420;2022-12-07T14:14:21;8.40;;;3.17;;
45296;SDS011;31040;51.622;10.420;2022-12-07T14:16:56;6.53;;;3.90;;
45296;SDS011;31040;51.622;10.420;2022-12-07T14:24:51;10.80;;;5.22;;
45296;SDS011;31040;51.622;10.420;2022-12-07T14:27:29;11.15;;;3.83;;
45296;SDS011;31040;51.622;10.420;2022-12-07T14:30:00;8.13;;;3.83;;
45296;SDS011;31040;51.622;10.420;2022-12-07T14:32:28;8.77;;;4.53;;
45296;SDS011;31040;51.622;10.420;2022-12-07T14:35:31;8.48;;;3.72;;
45296;SDS011;31040;51.622;10.420;2022-12-07T14:37:50;6.40;;;4.55;;
45296;SDS011;31040;51.622;10.420;2022-12-07T14:40:22;12.02;;;3.97;;
45296;SDS011;31040;51.622;10.420;2022-12-07T14:43:11;7.22;;;4.15;;
45296;SDS011;31040;51.622;10.420;2022-12-07T14:45:37;6.90;;;4.65;;
45296;SDS011;31040;51.622;10.420;2022-12-07T14:48:06;8.70;;;4.60;;
45296;SDS011;31040;51.622;10.420;2022-12-07T14:50:54;10.80;;;5.50;;
45296;SDS011;31040;51.622;10.420;2022-12-07T14:53:46;10.32;;;6.00;;
45296;SDS011;31040;51.622;10.420;2022-12-07T14:56:22;9.20;;;5.20;;
45296;SDS011;31040;51.622;10.420;2022-12-07T14:58:49;10.88;;;5.25;;
45296;SDS011;31040;51.622;10.420;2022-12-07T15:01:17;9.95;;;5.00;;
45296;SDS011;31040;51.622;10.420;2022-12-07T15:03:44;9.10;;;4.78;;
45296;SDS011;31040;51.622;10.420;2022-12-07T15:06:16;12.45;;;6.13;;
45296;SDS011;31040;51.622;10.420;2022-12-07T15:08:44;10.32;;;6.20;;
45296;SDS011;31040;51.622;10.420;2022-12-07T15:11:12;9.82;;;5.47;;
45296;SDS011;31040;51.622;10.420;2022-12-07T15:13:40;13.02;;;6.00;;
45296;SDS011;31040;51.622;10.420;2022-12-07T15:16:26;14.07;;;7.22;;
45296;SDS011;31040;51.622;10.420;2022-12-07T15:19:08;8.98;;;5.80;;
45296;SDS011;31040;51.622;10.420;2022-12-07T15:21:54;12.35;;;5.85;;
45296;SDS011;31040;51.622;10.420;2022-12-07T15:24:23;9.32;;;5.22;;
45296;SDS011;31040;51.622;10.420;2022-12-07T15:26:50;14.00;;;7.32;;
45296;SDS011;31040;51.622;10.420;2022-12-07T15:29:18;12.05;;;5.65;;
45296;SDS011;31040;51.622;10.420;2022-12-07T15:31:49;10.93;;;5.47;;
45296;SDS011;31040;51.622;10.420;2022-12-07T15:34:23;10.43;;;5.53;;
45296;SDS011;31040;51.622;10.420;2022-12-07T15:36:51;8.90;;;6.15;;
45296;SDS011;31040;51.622;10.420;2022-12-07T15:39:18;11.85;;;5.93;;
45296;SDS011;31040;51.622;10.420;2022-12-07T15:41:46;13.55;;;6.93;;
45296;SDS011;31040;51.622;10.420;2022-12-07T15:44:13;10.77;;;6.57;;
45296;SDS011;31040;51.622;10.420;2022-12-07T15:46:59;10.35;;;6.15;;
45296;SDS011;31040;51.622;10.420;2022-12-07T15:49:28;12.27;;;6.45;;
45296;SDS011;31040;51.622;10.420;2022-12-07T15:51:58;13.00;;;6.80;;
45296;SDS011;31040;51.622;10.420;2022-12-07T15:54:26;11.93;;;5.85;;
45296;SDS011;31040;51.622;10.420;2022-12-07T15:56:53;11.68;;;5.88;;
45296;SDS011;31040;51.622;10.420;2022-12-07T15:59:21;10.13;;;5.88;;
45296;SDS011;31040;51.622;10.420;2022-12-07T16:01:48;9.68;;;6.13;;
45296;SDS011;31040;51.622;10.420;2022-12-07T16:04:15;9.48;;;5.95;;
45296;SDS011;31040;51.622;10.420;2022-12-07T16:06:42;12.25;;;6.15;;
45296;SDS011;31040;51.622;10.420;2022-12-07T16:09:10;15.63;;;6.18;;
45296;SDS011;31040;51.622;10.420;2022-12-07T16:11:38;12.85;;;5.93;;
45296;SDS011;31040;51.622;10.420;2022-12-07T16:14:05;13.68;;;5.45;;
45296;SDS011;31040;51.622;10.420;2022-12-07T16:16:32;5.75;;;4.47;;
45296;SDS011;31040;51.622;10.420;2022-12-07T16:19:00;13.60;;;7.75;;
45296;SDS011;31040;51.622;10.420;2022-12-07T16:21:28;7.35;;;6.43;;
45296;SDS011;31040;51.622;10.420;2022-12-07T16:23:59;9.07;;;5.65;;
45296;SDS011;31040;51.622;10.420;2022-12-07T16:26:26;9.18;;;5.97;;
45296;SDS011;31040;51.622;10.420;2022-12-07T16:28:54;16.65;;;7.93;;
45296;SDS011;31040;51.622;10.420;2022-12-07T16:31:22;13.45;;;7.63;;
45296;SDS011;31040;51.622;10.420;2022-12-07T16:33:52;13.90;;;7.32;;
45296;SDS011;31040;51.622;10.420;2022-12-07T16:36:20;12.15;;;5.88;;
45296;SDS011;31040;51.622;10.420;2022-12-07T16:39:08;11.60;;;5.60;;
45296;SDS011;31040;51.622;10.420;2022-12-07T16:41:36;9.65;;;6.28;;
45296;SDS011;31040;51.622;10.420;2022-12-07T16:44:04;10.77;;;5.63;;
45296;SDS011;31040;51.622;10.420;2022-12-07T16:46:32;8.55;;;4.72;;
45296;SDS011;31040;51.622;10.420;2022-12-07T16:48:59;9.00;;;5.85;;
45296;SDS011;31040;51.622;10.420;2022-12-07T16:51:27;10.82;;;5.22;;
45296;SDS011;31040;51.622;10.420;2022-12-07T16:53:54;8.20;;;5.60;;
45296;SDS011;31040;51.622;10.420;2022-12-07T16:56:22;14.02;;;5.55;;
45296;SDS011;31040;51.622;10.420;2022-12-07T16:58:50;8.75;;;5.15;;